Free Trial

Claros Mortgage Trust (CMTG) Institutional Ownership

$9.64
+0.53 (+5.82%)
(As of 07/23/2024 ET)

Institutional Ownership Changes (13F Filings) for Claros Mortgage Trust (NYSE:CMTG)

Current
Institutional Ownership
Percentage
89.53%
Number of
Institutional Buyers
(last 12 months)
25
Total
Institutional Inflows
(last 12 months)
$211.85M
Number of
Institutional Sellers
(last 12 months)
18
Total
Institutional Outflows
(last 12 months)
$19.30M
Get CMTG Insider Trade Alerts

Want to know when executives and insiders are buying or selling Claros Mortgage Trust stock? Sign up for InsiderTrades.com's daily newsletter to get the latest insider transactions delivered to your inbox daily.

Skip Chart & View Institutional Buying and Selling Data

CMTG Institutional Buying and Selling by Quarter

Claros Mortgage Trust Major Shareholders & Ownership History

Reporting DateMajor Shareholder NameShares HeldMarket Value% of PortfolioQuarterly Change in SharesOwnership in CompanyDetails
7/20/2024 Nisa Investment Advisors LLC45,100$373K0.0%-3.4%0.033%
7/19/2024 Gladius Capital Management LP4,102$33K0.0%N/A0.003%
7/10/2024Simplicity Wealth LLC15,102$121K0.0%N/A0.011%
5/16/2024California State Teachers Retirement System108,939$1.06M0.0%-4.0%0.079%
5/15/2024Price T Rowe Associates Inc. MD81,059$792K0.0%+9.5%0.058%
5/15/2024Lazard Asset Management LLC14,392$140K0.0%N/A0.010%
5/14/2024MQS Management LLC13,074$128K0.1%N/A0.009%
5/11/2024Covestor Ltd10,897$106K0.1%+349.4%0.008%
5/10/2024Vanguard Group Inc.11,455,904$111.81M0.0%+0.3%8.257%
5/9/2024State Board of Administration of Florida Retirement System12,740$124K0.0%-50.8%0.009%
5/8/2024ProShare Advisors LLC16,316$159K0.0%+8.5%0.012%
5/7/2024 SG Americas Securities LLC10,891$106K0.0%+32.2%0.008%
5/1/2024Mirae Asset Global Investments Co. Ltd.39,535$386K0.0%-93.2%0.028%
4/30/2024Van ECK Associates Corp324,363$3.17M0.0%+0.7%0.234%
3/11/2024Vanguard Group Inc.11,425,527$155.73M0.0%+0.5%8.235%
3/1/2024Goldman Sachs Group Inc.14,609,072$199.12M0.0%+11,644.8%10.530%
2/9/2024AXS Investments LLC215,723$2.94M0.7%-5.6%0.155%
2/8/2024Wafra Inc.3,250,000$44.30M2.6%-18.8%2.343%
2/7/2024Teacher Retirement System of Texas7,499,285$102.22M0.7%-0.1%5.406%
2/6/2024Charles Schwab Investment Management Inc.871,156$11.87M0.0%+1.5%0.628%
2/6/2024Amalgamated Bank8,008$109K0.0%-10.5%0.006%
2/6/2024Swiss National Bank218,178$2.97M0.0%-10.1%0.157%
2/5/2024Victory Capital Management Inc.17,353$237K0.0%+22.7%0.013%
2/5/2024Van ECK Associates Corp322,173$4.39M0.0%+1.7%0.232%
2/1/2024New York State Common Retirement Fund64,208$875K0.0%-13.3%0.046%
2/1/2024Handelsbanken Fonder AB24,700$337K0.0%+90.0%0.018%
1/30/2024Strs Ohio18,500$252K0.0%-5.1%0.013%
1/25/2024 Nisa Investment Advisors LLC46,737$637K0.0%-10.0%0.034%
1/24/2024Mirae Asset Global Investments Co. Ltd.577,878$7.88M0.0%-13.4%0.417%
1/19/2024Denali Advisors LLC29,300$399K0.1%-18.8%0.021%
1/12/2024 SG Americas Securities LLC8,240$112K0.0%-59.9%0.006%
12/18/2023Vanguard Group Inc.11,370,271$125.98M0.0%+0.8%8.196%
12/6/2023Citigroup Inc.24,528$272K0.0%-45.5%0.018%
11/16/2023Penserra Capital Management LLC44,986$498K0.0%+14.4%0.032%
11/9/2023Deutsche Bank AG44,383$492K0.0%+15.1%0.032%
11/8/2023State of New Jersey Common Pension Fund D64,117$710K0.0%N/A0.046%
11/8/2023Van ECK Associates Corp316,708$3.51M0.0%+10.5%0.228%
11/8/2023Charles Schwab Investment Management Inc.857,991$9.51M0.0%+2.2%0.618%
11/7/2023New York State Common Retirement Fund74,041$820K0.0%+28.9%0.053%
11/7/2023Barclays PLC36,418$404K0.0%-32.0%0.026%
Buffett, Bezos, Bloomberg, and 48 Members of Congress Buying One Sector… (Ad)

Why is Warren Buffett, Jeff Bezos, Michael Bloomberg, "The Walmart Family", Bill Gates, and 48 members of Congress shifting their stocks in a frenzy?

Go here now to see the full details.
11/2/2023Principal Financial Group Inc.13,450$149K0.0%N/A0.010%
11/2/2023 Nisa Investment Advisors LLC51,908$575K0.0%+5.4%0.038%
10/31/2023Levin Capital Strategies L.P.10,000$111K0.0%-50.0%0.007%
10/26/2023Mirae Asset Global Investments Co. Ltd.667,144$7.39M0.0%-3.9%0.482%
10/24/2023Bank of New York Mellon Corp393,169$4.36M0.0%+4.2%0.284%
10/20/2023Denali Advisors LLC36,100$400K0.1%-31.8%0.026%
10/13/2023 SG Americas Securities LLC20,558$228K0.0%N/A0.015%
8/11/2023Penserra Capital Management LLC39,315$445K0.0%N/A0.028%
8/10/2023Mirae Asset Global Investments Co. Ltd.694,001$7.87M0.0%+1,655.4%0.501%
8/9/2023Swiss National Bank242,778$2.75M0.0%+47.8%0.175%
8/8/2023Rhumbline Advisers144,205$1.64M0.0%-1.1%0.104%
8/3/2023Van ECK Associates Corp286,602$3.25M0.0%+8.7%0.207%
8/3/2023Bank of New York Mellon Corp377,274$4.28M0.0%-5.3%0.273%
8/1/2023Arizona State Retirement System31,318$355K0.0%+42.0%0.023%
7/24/2023Allspring Global Investments Holdings LLC6,590$75K0.0%+15.3%0.005%
7/19/2023Teacher Retirement System of Texas7,510,366$85.17M0.6%+0.1%5.427%
7/18/2023Denali Advisors LLC52,900$600K0.2%+62.3%0.038%
7/18/2023Allspring Global Investments Holdings LLC6,590$75K0.0%+15.3%0.005%
5/9/2023California State Teachers Retirement System101,064$1.18M0.0%-2.3%0.073%
5/4/2023Barclays PLC46,749$545K0.0%+89.2%0.034%
5/3/2023Van ECK Associates Corp263,643$3.07M0.0%+5.8%0.191%
5/2/2023Victory Capital Management Inc.14,420$168K0.0%-69.8%0.010%
5/2/2023 Nisa Investment Advisors LLC51,742$603K0.0%+10.1%0.037%
5/2/2023Amalgamated Bank9,724$113K0.0%-18.5%0.007%
5/1/2023 Compagnie Lombard Odier SCmA92,500$1.08M0.0%-11.9%0.067%
4/28/2023 SG Americas Securities LLC15,227$177K0.0%+37.2%0.011%
4/28/2023Handelsbanken Fonder AB13,000$151K0.0%N/A0.009%
4/24/2023Levin Capital Strategies L.P.20,000$233K0.0%+100.0%0.014%
4/21/2023Denali Advisors LLC32,600$380K0.2%N/A0.023%
4/13/2023Allspring Global Investments Holdings LLC5,717$67K0.0%+128.1%0.004%
2/13/2023Dark Forest Capital Management LP13,079$192K0.0%N/A0.009%
2/13/2023 Compagnie Lombard Odier SCmA105,000$1.54M0.0%N/A0.076%
2/13/2023Levin Capital Strategies L.P.10,000$147K0.0%N/A0.007%
2/9/2023Mirae Asset Global Investments Co. Ltd.39,535$582K0.0%+3.9%0.029%
2/9/2023First Trust Advisors LP241,094$3.55M0.0%N/A0.174%
2/9/2023Victory Capital Management Inc.47,690$798K0.0%+223.8%0.034%
2/8/2023Van ECK Associates Corp249,266$3.67M0.0%N/A0.180%
2/8/2023Swiss National Bank185,278$2.73M0.0%N/A0.134%
2/8/2023Arizona State Retirement System21,645$318K0.0%N/A0.016%
2/7/2023State Board of Administration of Florida Retirement System12,740$187K0.0%N/A0.009%
2/2/2023 SG Americas Securities LLC11,095$163K0.0%-65.0%0.008%
2/2/2023ProShare Advisors LLC11,838$174K0.0%+16.7%0.009%
2/1/2023Zurcher Kantonalbank Zurich Cantonalbank11,719$172K0.0%N/A0.008%
1/30/2023New York State Common Retirement Fund67,412$992K0.0%+4.3%0.049%
1/26/2023Strs Ohio19,500$286K0.0%-9.3%0.014%
11/16/2022 Neo Ivy Capital Management7,645$90K0.2%N/A0.006%
11/14/2022Point72 Hong Kong Ltd3,024$36K0.0%-67.3%0.002%
11/14/2022Cubist Systematic Strategies LLC155,732$1.83M0.0%+183.4%0.113%
11/14/2022Verition Fund Management LLC11,998$141K0.0%N/A0.009%
11/10/2022ExodusPoint Capital Management LP53,451$628K0.0%N/A0.038%
Buffett, Bezos, Bloomberg, and 48 Members of Congress Buying One Sector… (Ad)

Why is Warren Buffett, Jeff Bezos, Michael Bloomberg, "The Walmart Family", Bill Gates, and 48 members of Congress shifting their stocks in a frenzy?

Go here now to see the full details.
11/9/2022Tesco Pension Investment Ltd304,723$3.58M100.0%-84.8%0.218%
11/8/2022New York State Common Retirement Fund64,652$759K0.0%+1.3%0.046%
11/7/2022 Nisa Investment Advisors LLC46,986$561K0.0%+73.4%0.034%
11/7/2022Jump Financial LLC25,292$297K0.0%-15.6%0.018%
11/3/2022Teacher Retirement System of Texas7,498,001$88.03M0.6%+87.5%5.369%
11/3/2022Barclays PLC3,901$46K0.0%-15.5%0.003%
11/2/2022Victory Capital Management Inc.14,728$173K0.0%N/A0.011%
10/31/2022 SG Americas Securities LLC31,737$373K0.0%-2.0%0.023%
10/26/2022Allspring Global Investments Holdings LLC2,561$30K0.0%N/A0.002%
10/12/2022Hyundai Investments Co. Ltd.27,402,025$321.70M100.0%-2.5%19.622%
(Data available from 1/1/2016 forward)

CMTG Institutional Ownership - Frequently Asked Questions

Who are the largest shareholders of CMTG shares?

During the previous two years, 51 institutional investors and hedge funds held shares of Claros Mortgage Trust. The most heavily invested institutionals were Hyundai Investments Co. Ltd. ($321.70M), Goldman Sachs Group Inc. ($199.12M), Offit Capital Advisors LLC ($119.95M), Vanguard Group Inc. ($111.81M), Teacher Retirement System of Texas ($102.22M), Northern Trust Corp ($51.98M), and Wafra Inc. ($44.30M).Learn more on CMTG's institutional investors.

What percentage of Claros Mortgage Trust stock is owned by institutional investors?

89.53% of Claros Mortgage Trust stock is owned by institutional investors. Learn more on CMTG's institutional investor holdings.

Which institutional investors have been buying Claros Mortgage Trust stock?

Of the 41 institutional investors that purchased Claros Mortgage Trust stock in the last 24 months, the following investors and hedge funds have bought the highest volume of shares: Goldman Sachs Group Inc. ($14.48M), Teacher Retirement System of Texas ($3.50M), Tesco Pension Investment Ltd ($2M), Mirae Asset Global Investments Co. Ltd. ($682.27K), Northern Trust Corp ($603.36K), Van ECK Associates Corp ($324.36K), and Swiss National Bank ($263.78K).

How much institutional buying is happening at Claros Mortgage Trust?

Institutional investors have bought a total of 23,213,274 shares in the last 24 months. This purchase volume represents approximately $315.58M in transactions.

Which Claros Mortgage Trust major shareholders have been selling company stock?

Of the 25 institutional investors that sold Claros Mortgage Trust stock in the last 24 months, the following investors and hedge funds have sold the highest volume of shares: Offit Capital Advisors LLC ($2.69M), Tesco Pension Investment Ltd ($1.70M), Wafra Inc. ($750K), Hyundai Investments Co. Ltd. ($689.45K), Mirae Asset Global Investments Co. Ltd. ($654.47K), SG Americas Securities LLC ($33.62K), and Victory Capital Management Inc. ($33.40K).

How much institutional selling is happening at Claros Mortgage Trust?

Institutional investors have sold a total of 6,760,345 shares in the last 24 months. This volume of shares sold represents approximately $93.50M in transactions.


This page (NYSE:CMTG) was last updated on 7/23/2024 by MarketBeat.com Staff

From Our Partners